sensor_id;sensor_type;location;lat;lon;timestamp;P1;durP1;ratioP1;P2;durP2;ratioP2
495;SDS011;39559;48.630;9.162;2024-02-23T00:01:09;5.80;;;1.43;;
495;SDS011;39559;48.630;9.162;2024-02-23T00:03:36;5.60;;;1.40;;
495;SDS011;39559;48.630;9.162;2024-02-23T00:06:02;5.60;;;1.27;;
495;SDS011;39559;48.630;9.162;2024-02-23T00:08:27;5.70;;;1.30;;
495;SDS011;39559;48.630;9.162;2024-02-23T00:10:53;6.10;;;1.40;;
495;SDS011;39559;48.630;9.162;2024-02-23T00:15:25;5.55;;;1.30;;
495;SDS011;39559;48.630;9.162;2024-02-23T00:17:50;5.60;;;1.40;;
495;SDS011;39559;48.630;9.162;2024-02-23T00:20:16;5.70;;;1.43;;
495;SDS011;39559;48.630;9.162;2024-02-23T00:22:41;5.67;;;1.43;;
495;SDS011;39559;48.630;9.162;2024-02-23T00:25:07;5.70;;;1.30;;
495;SDS011;39559;48.630;9.162;2024-02-23T00:27:33;5.80;;;1.50;;
495;SDS011;39559;48.630;9.162;2024-02-23T00:29:59;5.87;;;1.50;;
495;SDS011;39559;48.630;9.162;2024-02-23T00:32:25;5.75;;;1.42;;
495;SDS011;39559;48.630;9.162;2024-02-23T00:34:50;5.80;;;1.40;;
495;SDS011;39559;48.630;9.162;2024-02-23T00:39:23;7.22;;;1.60;;
495;SDS011;39559;48.630;9.162;2024-02-23T00:41:49;7.17;;;1.80;;
495;SDS011;39559;48.630;9.162;2024-02-23T00:44:14;5.83;;;1.53;;
495;SDS011;39559;48.630;9.162;2024-02-23T00:46:40;5.80;;;1.60;;
495;SDS011;39559;48.630;9.162;2024-02-23T00:49:05;5.70;;;1.43;;
495;SDS011;39559;48.630;9.162;2024-02-23T00:51:31;5.83;;;1.67;;
495;SDS011;39559;48.630;9.162;2024-02-23T00:53:57;6.83;;;1.37;;
495;SDS011;39559;48.630;9.162;2024-02-23T00:56:23;5.90;;;1.50;;
495;SDS011;39559;48.630;9.162;2024-02-23T00:58:48;6.40;;;1.60;;
495;SDS011;39559;48.630;9.162;2024-02-23T01:03:22;6.25;;;1.50;;
495;SDS011;39559;48.630;9.162;2024-02-23T01:05:48;6.40;;;1.70;;
495;SDS011;39559;48.630;9.162;2024-02-23T01:08:14;8.00;;;1.60;;
495;SDS011;39559;48.630;9.162;2024-02-23T01:10:39;6.77;;;1.83;;
495;SDS011;39559;48.630;9.162;2024-02-23T01:13:05;6.70;;;1.90;;
495;SDS011;39559;48.630;9.162;2024-02-23T01:15:31;6.80;;;1.80;;
495;SDS011;39559;48.630;9.162;2024-02-23T01:17:56;6.07;;;1.70;;
495;SDS011;39559;48.630;9.162;2024-02-23T01:20:22;5.67;;;1.40;;
495;SDS011;39559;48.630;9.162;2024-02-23T01:22:48;6.03;;;1.70;;
495;SDS011;39559;48.630;9.162;2024-02-23T01:27:21;6.00;;;1.58;;
495;SDS011;39559;48.630;9.162;2024-02-23T01:29:47;6.30;;;1.77;;
495;SDS011;39559;48.630;9.162;2024-02-23T01:32:12;7.13;;;1.70;;
495;SDS011;39559;48.630;9.162;2024-02-23T01:34:38;6.00;;;1.50;;
495;SDS011;39559;48.630;9.162;2024-02-23T01:37:04;6.27;;;1.60;;
495;SDS011;39559;48.630;9.162;2024-02-23T01:39:29;5.80;;;1.50;;
495;SDS011;39559;48.630;9.162;2024-02-23T01:41:55;6.00;;;1.60;;
495;SDS011;39559;48.630;9.162;2024-02-23T01:44:21;6.20;;;1.70;;
495;SDS011;39559;48.630;9.162;2024-02-23T01:46:46;6.20;;;1.70;;
495;SDS011;39559;48.630;9.162;2024-02-23T01:51:19;5.80;;;1.50;;
495;SDS011;39559;48.630;9.162;2024-02-23T01:53:45;6.47;;;1.75;;
495;SDS011;39559;48.630;9.162;2024-02-23T01:56:12;6.40;;;1.53;;
495;SDS011;39559;48.630;9.162;2024-02-23T01:58:42;6.07;;;1.75;;
495;SDS011;39559;48.630;9.162;2024-02-23T02:01:08;6.38;;;1.75;;
495;SDS011;39559;48.630;9.162;2024-02-23T02:03:34;6.37;;;1.77;;
495;SDS011;39559;48.630;9.162;2024-02-23T02:06:01;5.90;;;1.52;;
495;SDS011;39559;48.630;9.162;2024-02-23T02:08:27;7.07;;;1.90;;
495;SDS011;39559;48.630;9.162;2024-02-23T02:10:53;6.10;;;1.80;;
495;SDS011;39559;48.630;9.162;2024-02-23T02:15:18;6.38;;;1.80;;
495;SDS011;39559;48.630;9.162;2024-02-23T02:17:45;5.90;;;1.73;;
495;SDS011;39559;48.630;9.162;2024-02-23T02:20:13;6.30;;;1.60;;
495;SDS011;39559;48.630;9.162;2024-02-23T02:22:39;9.60;;;1.88;;
495;SDS011;39559;48.630;9.162;2024-02-23T02:25:05;6.00;;;1.60;;
495;SDS011;39559;48.630;9.162;2024-02-23T02:27:31;6.50;;;1.65;;
495;SDS011;39559;48.630;9.162;2024-02-23T02:29:57;6.10;;;2.00;;
495;SDS011;39559;48.630;9.162;2024-02-23T02:32:23;7.60;;;1.70;;
495;SDS011;39559;48.630;9.162;2024-02-23T02:34:49;6.10;;;1.77;;
495;SDS011;39559;48.630;9.162;2024-02-23T02:39:17;5.80;;;1.65;;
495;SDS011;39559;48.630;9.162;2024-02-23T02:41:43;6.20;;;1.60;;
495;SDS011;39559;48.630;9.162;2024-02-23T02:44:08;7.30;;;1.60;;
495;SDS011;39559;48.630;9.162;2024-02-23T02:46:35;7.00;;;1.50;;
495;SDS011;39559;48.630;9.162;2024-02-23T02:49:01;7.55;;;1.77;;
495;SDS011;39559;48.630;9.162;2024-02-23T02:51:27;6.10;;;1.50;;
495;SDS011;39559;48.630;9.162;2024-02-23T02:53:52;5.80;;;1.70;;
495;SDS011;39559;48.630;9.162;2024-02-23T02:56:17;6.30;;;1.50;;
495;SDS011;39559;48.630;9.162;2024-02-23T02:58:43;8.07;;;1.87;;
495;SDS011;39559;48.630;9.162;2024-02-23T03:03:16;7.05;;;1.80;;
495;SDS011;39559;48.630;9.162;2024-02-23T03:05:42;6.33;;;1.90;;
495;SDS011;39559;48.630;9.162;2024-02-23T03:08:07;5.83;;;1.67;;
495;SDS011;39559;48.630;9.162;2024-02-23T03:10:33;6.00;;;1.60;;
495;SDS011;39559;48.630;9.162;2024-02-23T03:12:58;6.63;;;2.00;;
495;SDS011;39559;48.630;9.162;2024-02-23T03:15:24;5.97;;;1.60;;
495;SDS011;39559;48.630;9.162;2024-02-23T03:17:49;6.33;;;1.90;;
495;SDS011;39559;48.630;9.162;2024-02-23T03:20:15;5.73;;;1.60;;
495;SDS011;39559;48.630;9.162;2024-02-23T03:22:41;5.80;;;1.50;;
495;SDS011;39559;48.630;9.162;2024-02-23T03:27:15;5.80;;;1.52;;
495;SDS011;39559;48.630;9.162;2024-02-23T03:29:41;5.67;;;1.60;;
495;SDS011;39559;48.630;9.162;2024-02-23T03:32:07;6.37;;;1.40;;
495;SDS011;39559;48.630;9.162;2024-02-23T03:34:32;6.10;;;1.60;;
495;SDS011;39559;48.630;9.162;2024-02-23T03:36:58;5.57;;;1.40;;
495;SDS011;39559;48.630;9.162;2024-02-23T03:39:25;5.80;;;1.70;;
495;SDS011;39559;48.630;9.162;2024-02-23T03:41:50;6.83;;;2.00;;
495;SDS011;39559;48.630;9.162;2024-02-23T03:44:16;6.10;;;1.70;;
495;SDS011;39559;48.630;9.162;2024-02-23T03:46:41;6.20;;;1.60;;
495;SDS011;39559;48.630;9.162;2024-02-23T03:51:14;5.90;;;1.65;;
495;SDS011;39559;48.630;9.162;2024-02-23T03:53:39;6.00;;;1.73;;
495;SDS011;39559;48.630;9.162;2024-02-23T03:56:05;6.20;;;1.83;;
495;SDS011;39559;48.630;9.162;2024-02-23T03:58:31;7.07;;;1.70;;
495;SDS011;39559;48.630;9.162;2024-02-23T04:00:56;6.70;;;1.70;;
495;SDS011;39559;48.630;9.162;2024-02-23T04:03:22;5.90;;;1.70;;
495;SDS011;39559;48.630;9.162;2024-02-23T04:05:47;6.40;;;1.80;;
495;SDS011;39559;48.630;9.162;2024-02-23T04:08:13;5.80;;;1.70;;
495;SDS011;39559;48.630;9.162;2024-02-23T04:10:38;6.20;;;1.70;;
495;SDS011;39559;48.630;9.162;2024-02-23T04:15:14;6.20;;;1.92;;
495;SDS011;39559;48.630;9.162;2024-02-23T04:17:40;5.77;;;1.57;;
495;SDS011;39559;48.630;9.162;2024-02-23T04:20:06;6.60;;;1.73;;
495;SDS011;39559;48.630;9.162;2024-02-23T04:22:33;6.03;;;1.98;;
495;SDS011;39559;48.630;9.162;2024-02-23T04:24:58;5.77;;;1.63;;
495;SDS011;39559;48.630;9.162;2024-02-23T04:27:24;6.50;;;1.60;;
495;SDS011;39559;48.630;9.162;2024-02-23T04:29:49;6.77;;;1.70;;
495;SDS011;39559;48.630;9.162;2024-02-23T04:32:15;6.87;;;1.90;;
495;SDS011;39559;48.630;9.162;2024-02-23T04:34:40;8.10;;;1.80;;
495;SDS011;39559;48.630;9.162;2024-02-23T04:39:13;5.80;;;1.45;;
495;SDS011;39559;48.630;9.162;2024-02-23T04:41:39;5.70;;;1.60;;
495;SDS011;39559;48.630;9.162;2024-02-23T04:44:04;6.00;;;1.77;;
495;SDS011;39559;48.630;9.162;2024-02-23T04:46:30;5.97;;;1.70;;
495;SDS011;39559;48.630;9.162;2024-02-23T04:48:56;5.90;;;1.80;;
495;SDS011;39559;48.630;9.162;2024-02-23T04:51:22;5.80;;;1.60;;
495;SDS011;39559;48.630;9.162;2024-02-23T04:53:50;6.10;;;1.70;;
495;SDS011;39559;48.630;9.162;2024-02-23T04:56:16;5.87;;;1.70;;
495;SDS011;39559;48.630;9.162;2024-02-23T04:58:41;7.00;;;2.23;;
495;SDS011;39559;48.630;9.162;2024-02-23T05:03:12;7.32;;;2.30;;
495;SDS011;39559;48.630;9.162;2024-02-23T05:05:39;7.10;;;2.40;;
495;SDS011;39559;48.630;9.162;2024-02-23T05:08:04;6.23;;;2.10;;
495;SDS011;39559;48.630;9.162;2024-02-23T05:10:30;5.90;;;2.03;;
495;SDS011;39559;48.630;9.162;2024-02-23T05:12:56;7.80;;;2.03;;
495;SDS011;39559;48.630;9.162;2024-02-23T05:15:21;6.47;;;1.90;;
495;SDS011;39559;48.630;9.162;2024-02-23T05:17:47;6.83;;;1.87;;
495;SDS011;39559;48.630;9.162;2024-02-23T05:20:13;6.50;;;1.83;;
495;SDS011;39559;48.630;9.162;2024-02-23T05:22:39;6.20;;;1.80;;
495;SDS011;39559;48.630;9.162;2024-02-23T05:27:12;6.53;;;2.00;;
495;SDS011;39559;48.630;9.162;2024-02-23T05:29:38;7.50;;;2.00;;
495;SDS011;39559;48.630;9.162;2024-02-23T05:32:03;6.63;;;2.40;;
495;SDS011;39559;48.630;9.162;2024-02-23T05:34:29;7.00;;;3.07;;
495;SDS011;39559;48.630;9.162;2024-02-23T05:36:55;7.80;;;3.40;;
495;SDS011;39559;48.630;9.162;2024-02-23T05:39:21;8.50;;;3.67;;
495;SDS011;39559;48.630;9.162;2024-02-23T05:41:46;6.93;;;3.10;;
495;SDS011;39559;48.630;9.162;2024-02-23T05:44:12;8.00;;;3.53;;
495;SDS011;39559;48.630;9.162;2024-02-23T05:46:38;7.22;;;3.58;;
495;SDS011;39559;48.630;9.162;2024-02-23T05:51:11;8.10;;;4.18;;
495;SDS011;39559;48.630;9.162;2024-02-23T05:53:37;8.10;;;3.70;;
495;SDS011;39559;48.630;9.162;2024-02-23T05:56:02;7.40;;;3.80;;
495;SDS011;39559;48.630;9.162;2024-02-23T05:58:28;6.72;;;3.20;;
495;SDS011;39559;48.630;9.162;2024-02-23T06:00:54;8.70;;;3.60;;
495;SDS011;39559;48.630;9.162;2024-02-23T06:03:19;6.63;;;2.60;;
495;SDS011;39559;48.630;9.162;2024-02-23T06:05:45;6.40;;;2.60;;
495;SDS011;39559;48.630;9.162;2024-02-23T06:08:11;6.30;;;2.20;;
495;SDS011;39559;48.630;9.162;2024-02-23T06:10:37;5.90;;;2.00;;
495;SDS011;39559;48.630;9.162;2024-02-23T06:15:11;6.30;;;2.05;;
495;SDS011;39559;48.630;9.162;2024-02-23T06:17:37;6.07;;;1.87;;
495;SDS011;39559;48.630;9.162;2024-02-23T06:20:05;5.88;;;1.60;;
495;SDS011;39559;48.630;9.162;2024-02-23T06:22:32;6.57;;;1.80;;
495;SDS011;39559;48.630;9.162;2024-02-23T06:24:58;6.03;;;2.03;;
495;SDS011;39559;48.630;9.162;2024-02-23T06:27:24;6.47;;;2.00;;
495;SDS011;39559;48.630;9.162;2024-02-23T06:29:50;6.10;;;2.10;;
495;SDS011;39559;48.630;9.162;2024-02-23T06:32:16;6.50;;;2.30;;
495;SDS011;39559;48.630;9.162;2024-02-23T06:34:41;6.13;;;2.03;;
495;SDS011;39559;48.630;9.162;2024-02-23T06:39:11;5.85;;;2.05;;
495;SDS011;39559;48.630;9.162;2024-02-23T06:41:37;6.03;;;1.90;;
495;SDS011;39559;48.630;9.162;2024-02-23T06:44:06;8.57;;;2.50;;
495;SDS011;39559;48.630;9.162;2024-02-23T06:46:32;6.70;;;2.00;;
495;SDS011;39559;48.630;9.162;2024-02-23T06:48:57;7.40;;;2.30;;
495;SDS011;39559;48.630;9.162;2024-02-23T06:51:23;6.53;;;2.20;;
495;SDS011;39559;48.630;9.162;2024-02-23T06:53:48;6.40;;;2.07;;
495;SDS011;39559;48.630;9.162;2024-02-23T06:56:14;6.93;;;2.50;;
495;SDS011;39559;48.630;9.162;2024-02-23T06:58:40;8.10;;;2.90;;
495;SDS011;39559;48.630;9.162;2024-02-23T07:03:11;8.50;;;4.20;;
495;SDS011;39559;48.630;9.162;2024-02-23T07:05:37;7.47;;;3.33;;
495;SDS011;39559;48.630;9.162;2024-02-23T07:08:02;8.40;;;3.00;;
495;SDS011;39559;48.630;9.162;2024-02-23T07:10:28;7.60;;;3.17;;
495;SDS011;39559;48.630;9.162;2024-02-23T07:12:54;7.40;;;2.77;;
495;SDS011;39559;48.630;9.162;2024-02-23T07:15:21;8.82;;;2.97;;
495;SDS011;39559;48.630;9.162;2024-02-23T07:17:47;7.53;;;3.10;;
495;SDS011;39559;48.630;9.162;2024-02-23T07:20:13;7.47;;;2.80;;
495;SDS011;39559;48.630;9.162;2024-02-23T07:22:39;6.70;;;2.63;;
495;SDS011;39559;48.630;9.162;2024-02-23T07:27:11;7.38;;;2.78;;
495;SDS011;39559;48.630;9.162;2024-02-23T07:29:36;7.00;;;2.57;;
495;SDS011;39559;48.630;9.162;2024-02-23T07:32:02;7.60;;;2.70;;
495;SDS011;39559;48.630;9.162;2024-02-23T07:34:27;6.93;;;2.67;;
495;SDS011;39559;48.630;9.162;2024-02-23T07:36:53;7.37;;;2.37;;
495;SDS011;39559;48.630;9.162;2024-02-23T07:39:19;6.55;;;2.30;;
495;SDS011;39559;48.630;9.162;2024-02-23T07:41:47;6.72;;;2.10;;
495;SDS011;39559;48.630;9.162;2024-02-23T07:44:13;6.50;;;1.90;;
495;SDS011;39559;48.630;9.162;2024-02-23T07:46:38;7.07;;;2.07;;
495;SDS011;39559;48.630;9.162;2024-02-23T07:51:11;6.75;;;1.92;;
495;SDS011;39559;48.630;9.162;2024-02-23T07:53:37;6.37;;;2.20;;
495;SDS011;39559;48.630;9.162;2024-02-23T07:56:02;7.13;;;2.00;;
495;SDS011;39559;48.630;9.162;2024-02-23T07:58:29;5.95;;;1.92;;
495;SDS011;39559;48.630;9.162;2024-02-23T08:00:54;8.17;;;2.00;;
495;SDS011;39559;48.630;9.162;2024-02-23T08:03:20;6.70;;;2.30;;
495;SDS011;39559;48.630;9.162;2024-02-23T08:05:45;7.20;;;2.10;;
495;SDS011;39559;48.630;9.162;2024-02-23T08:08:11;6.63;;;2.13;;
495;SDS011;39559;48.630;9.162;2024-02-23T08:10:37;7.88;;;3.33;;
495;SDS011;39559;48.630;9.162;2024-02-23T08:15:11;8.95;;;2.95;;
495;SDS011;39559;48.630;9.162;2024-02-23T08:17:36;8.40;;;2.73;;
495;SDS011;39559;48.630;9.162;2024-02-23T08:20:02;7.33;;;2.70;;
495;SDS011;39559;48.630;9.162;2024-02-23T08:22:29;8.60;;;2.60;;
495;SDS011;39559;48.630;9.162;2024-02-23T08:24:54;9.00;;;2.90;;
495;SDS011;39559;48.630;9.162;2024-02-23T08:27:20;6.90;;;2.47;;
495;SDS011;39559;48.630;9.162;2024-02-23T08:29:46;6.50;;;2.10;;
495;SDS011;39559;48.630;9.162;2024-02-23T08:32:11;8.13;;;2.87;;
495;SDS011;39559;48.630;9.162;2024-02-23T08:34:38;7.93;;;2.60;;
495;SDS011;39559;48.630;9.162;2024-02-23T08:39:11;7.03;;;2.00;;
495;SDS011;39559;48.630;9.162;2024-02-23T08:41:37;10.33;;;2.30;;
495;SDS011;39559;48.630;9.162;2024-02-23T08:44:02;6.87;;;2.20;;
495;SDS011;39559;48.630;9.162;2024-02-23T08:46:28;6.50;;;1.87;;
495;SDS011;39559;48.630;9.162;2024-02-23T08:48:53;6.30;;;2.00;;
495;SDS011;39559;48.630;9.162;2024-02-23T08:51:19;7.40;;;2.13;;
495;SDS011;39559;48.630;9.162;2024-02-23T08:53:44;10.93;;;2.10;;
495;SDS011;39559;48.630;9.162;2024-02-23T08:56:11;7.43;;;2.10;;
495;SDS011;39559;48.630;9.162;2024-02-23T08:58:37;6.70;;;2.10;;
495;SDS011;39559;48.630;9.162;2024-02-23T09:03:11;9.70;;;2.00;;
495;SDS011;39559;48.630;9.162;2024-02-23T09:05:36;7.20;;;2.10;;
495;SDS011;39559;48.630;9.162;2024-02-23T09:08:02;7.57;;;2.40;;
495;SDS011;39559;48.630;9.162;2024-02-23T09:10:28;7.80;;;2.03;;
495;SDS011;39559;48.630;9.162;2024-02-23T09:12:53;7.17;;;2.20;;
495;SDS011;39559;48.630;9.162;2024-02-23T09:15:19;8.13;;;2.53;;
495;SDS011;39559;48.630;9.162;2024-02-23T09:17:44;8.50;;;2.03;;
495;SDS011;39559;48.630;9.162;2024-02-23T09:20:10;7.77;;;2.30;;
495;SDS011;39559;48.630;9.162;2024-02-23T09:22:36;7.70;;;1.95;;
495;SDS011;39559;48.630;9.162;2024-02-23T09:27:11;6.60;;;2.10;;
495;SDS011;39559;48.630;9.162;2024-02-23T09:29:36;7.27;;;2.43;;
495;SDS011;39559;48.630;9.162;2024-02-23T09:32:02;7.37;;;2.27;;
495;SDS011;39559;48.630;9.162;2024-02-23T09:34:28;8.53;;;2.50;;
495;SDS011;39559;48.630;9.162;2024-02-23T09:36:54;8.35;;;2.10;;
495;SDS011;39559;48.630;9.162;2024-02-23T09:39:20;7.70;;;2.53;;
495;SDS011;39559;48.630;9.162;2024-02-23T09:41:46;8.93;;;2.50;;
495;SDS011;39559;48.630;9.162;2024-02-23T09:44:15;8.07;;;2.00;;
495;SDS011;39559;48.630;9.162;2024-02-23T09:46:43;7.32;;;2.45;;
495;SDS011;39559;48.630;9.162;2024-02-23T09:51:14;8.18;;;2.20;;
495;SDS011;39559;48.630;9.162;2024-02-23T09:53:41;7.10;;;2.38;;
495;SDS011;39559;48.630;9.162;2024-02-23T09:56:10;8.07;;;2.30;;
495;SDS011;39559;48.630;9.162;2024-02-23T09:58:36;7.80;;;2.30;;
495;SDS011;39559;48.630;9.162;2024-02-23T10:01:03;9.00;;;2.55;;
495;SDS011;39559;48.630;9.162;2024-02-23T10:03:29;9.35;;;2.42;;
495;SDS011;39559;48.630;9.162;2024-02-23T10:05:56;8.73;;;2.53;;
495;SDS011;39559;48.630;9.162;2024-02-23T10:08:27;6.85;;;2.05;;
495;SDS011;39559;48.630;9.162;2024-02-23T10:10:56;7.30;;;1.95;;
495;SDS011;39559;48.630;9.162;2024-02-23T10:15:11;7.53;;;2.30;;
495;SDS011;39559;48.630;9.162;2024-02-23T10:17:36;7.60;;;2.37;;
495;SDS011;39559;48.630;9.162;2024-02-23T10:20:02;7.83;;;2.00;;
495;SDS011;39559;48.630;9.162;2024-02-23T10:22:31;7.07;;;2.10;;
495;SDS011;39559;48.630;9.162;2024-02-23T10:24:56;7.40;;;2.20;;
495;SDS011;39559;48.630;9.162;2024-02-23T10:27:23;10.10;;;2.17;;
495;SDS011;39559;48.630;9.162;2024-02-23T10:29:49;8.00;;;2.10;;
495;SDS011;39559;48.630;9.162;2024-02-23T10:32:15;7.15;;;2.05;;
495;SDS011;39559;48.630;9.162;2024-02-23T10:34:44;5.88;;;1.90;;
495;SDS011;39559;48.630;9.162;2024-02-23T10:39:10;6.57;;;2.00;;
495;SDS011;39559;48.630;9.162;2024-02-23T10:41:42;6.80;;;2.00;;
495;SDS011;39559;48.630;9.162;2024-02-23T10:44:12;7.20;;;2.28;;
495;SDS011;39559;48.630;9.162;2024-02-23T10:46:41;6.85;;;1.98;;
495;SDS011;39559;48.630;9.162;2024-02-23T10:49:07;8.07;;;2.20;;
495;SDS011;39559;48.630;9.162;2024-02-23T10:51:33;10.40;;;2.30;;
495;SDS011;39559;48.630;9.162;2024-02-23T10:54:01;7.57;;;2.10;;
495;SDS011;39559;48.630;9.162;2024-02-23T10:56:28;9.35;;;2.35;;
495;SDS011;39559;48.630;9.162;2024-02-23T10:58:53;7.33;;;2.17;;
495;SDS011;39559;48.630;9.162;2024-02-23T11:03:10;6.80;;;2.00;;
495;SDS011;39559;48.630;9.162;2024-02-23T11:05:36;7.97;;;2.50;;
495;SDS011;39559;48.630;9.162;2024-02-23T11:08:02;7.30;;;2.10;;
495;SDS011;39559;48.630;9.162;2024-02-23T11:10:31;9.70;;;2.53;;
495;SDS011;39559;48.630;9.162;2024-02-23T11:13:07;7.68;;;2.90;;
495;SDS011;39559;48.630;9.162;2024-02-23T11:15:34;7.20;;;2.20;;
495;SDS011;39559;48.630;9.162;2024-02-23T11:18:21;9.18;;;2.00;;
495;SDS011;39559;48.630;9.162;2024-02-23T11:20:59;8.02;;;2.40;;
495;SDS011;39559;48.630;9.162;2024-02-23T11:23:27;10.55;;;2.15;;
495;SDS011;39559;48.630;9.162;2024-02-23T11:27:13;7.53;;;2.20;;
495;SDS011;39559;48.630;9.162;2024-02-23T11:29:42;9.13;;;2.20;;
495;SDS011;39559;48.630;9.162;2024-02-23T11:32:17;7.30;;;2.17;;
495;SDS011;39559;48.630;9.162;2024-02-23T11:34:55;7.55;;;2.20;;
495;SDS011;39559;48.630;9.162;2024-02-23T11:37:27;12.30;;;2.10;;
495;SDS011;39559;48.630;9.162;2024-02-23T11:39:54;7.70;;;2.30;;
495;SDS011;39559;48.630;9.162;2024-02-23T11:42:20;7.40;;;2.13;;
495;SDS011;39559;48.630;9.162;2024-02-23T11:44:49;6.75;;;2.03;;
495;SDS011;39559;48.630;9.162;2024-02-23T11:47:15;7.82;;;2.13;;
495;SDS011;39559;48.630;9.162;2024-02-23T11:51:10;8.63;;;2.25;;
495;SDS011;39559;48.630;9.162;2024-02-23T11:53:38;7.97;;;2.13;;
495;SDS011;39559;48.630;9.162;2024-02-23T11:56:05;10.27;;;2.25;;
495;SDS011;39559;48.630;9.162;2024-02-23T11:58:34;7.45;;;2.22;;
495;SDS011;39559;48.630;9.162;2024-02-23T12:01:00;7.75;;;2.15;;
495;SDS011;39559;48.630;9.162;2024-02-23T12:03:34;8.57;;;2.10;;
495;SDS011;39559;48.630;9.162;2024-02-23T12:06:00;11.93;;;2.20;;
495;SDS011;39559;48.630;9.162;2024-02-23T12:08:27;7.22;;;2.03;;
495;SDS011;39559;48.630;9.162;2024-02-23T12:11:03;9.15;;;2.20;;
495;SDS011;39559;48.630;9.162;2024-02-23T12:15:09;11.05;;;2.20;;
495;SDS011;39559;48.630;9.162;2024-02-23T12:17:35;8.50;;;2.30;;
495;SDS011;39559;48.630;9.162;2024-02-23T12:20:04;7.70;;;2.30;;
495;SDS011;39559;48.630;9.162;2024-02-23T12:22:34;9.68;;;2.60;;
495;SDS011;39559;48.630;9.162;2024-02-23T12:25:00;9.83;;;2.47;;
495;SDS011;39559;48.630;9.162;2024-02-23T12:27:26;7.47;;;2.30;;
495;SDS011;39559;48.630;9.162;2024-02-23T12:29:52;9.32;;;2.75;;
495;SDS011;39559;48.630;9.162;2024-02-23T12:32:19;7.85;;;2.30;;
495;SDS011;39559;48.630;9.162;2024-02-23T12:34:52;8.00;;;2.63;;
495;SDS011;39559;48.630;9.162;2024-02-23T12:39:11;7.13;;;2.25;;
495;SDS011;39559;48.630;9.162;2024-02-23T12:41:37;7.22;;;2.10;;
495;SDS011;39559;48.630;9.162;2024-02-23T12:44:02;8.10;;;2.77;;
495;SDS011;39559;48.630;9.162;2024-02-23T12:46:28;9.53;;;2.53;;
495;SDS011;39559;48.630;9.162;2024-02-23T12:48:54;7.90;;;2.87;;
495;SDS011;39559;48.630;9.162;2024-02-23T12:51:24;8.93;;;2.78;;
495;SDS011;39559;48.630;9.162;2024-02-23T12:53:50;9.40;;;2.53;;
495;SDS011;39559;48.630;9.162;2024-02-23T12:56:16;9.63;;;2.60;;
495;SDS011;39559;48.630;9.162;2024-02-23T12:58:48;10.45;;;2.30;;
495;SDS011;39559;48.630;9.162;2024-02-23T13:03:10;8.80;;;2.85;;
495;SDS011;39559;48.630;9.162;2024-02-23T13:05:36;8.20;;;2.90;;
495;SDS011;39559;48.630;9.162;2024-02-23T13:08:01;7.30;;;2.43;;
495;SDS011;39559;48.630;9.162;2024-02-23T13:10:27;10.33;;;2.70;;
495;SDS011;39559;48.630;9.162;2024-02-23T13:12:53;10.30;;;2.90;;
495;SDS011;39559;48.630;9.162;2024-02-23T13:15:20;8.75;;;3.58;;
495;SDS011;39559;48.630;9.162;2024-02-23T13:17:46;7.25;;;2.40;;
495;SDS011;39559;48.630;9.162;2024-02-23T13:20:11;8.90;;;2.60;;
495;SDS011;39559;48.630;9.162;2024-02-23T13:22:38;9.77;;;2.60;;
495;SDS011;39559;48.630;9.162;2024-02-23T13:27:08;8.10;;;2.58;;
495;SDS011;39559;48.630;9.162;2024-02-23T13:29:33;8.80;;;2.40;;
495;SDS011;39559;48.630;9.162;2024-02-23T13:31:59;10.37;;;2.70;;
495;SDS011;39559;48.630;9.162;2024-02-23T13:34:24;7.47;;;2.50;;
495;SDS011;39559;48.630;9.162;2024-02-23T13:36:51;10.83;;;2.33;;
495;SDS011;39559;48.630;9.162;2024-02-23T13:39:17;8.85;;;2.28;;
495;SDS011;39559;48.630;9.162;2024-02-23T13:41:43;8.60;;;3.23;;
495;SDS011;39559;48.630;9.162;2024-02-23T13:44:10;7.90;;;2.60;;
495;SDS011;39559;48.630;9.162;2024-02-23T13:46:35;9.15;;;3.75;;
495;SDS011;39559;48.630;9.162;2024-02-23T13:51:07;8.27;;;2.35;;
495;SDS011;39559;48.630;9.162;2024-02-23T13:53:33;8.97;;;2.70;;
495;SDS011;39559;48.630;9.162;2024-02-23T13:56:02;7.55;;;2.55;;
495;SDS011;39559;48.630;9.162;2024-02-23T13:58:28;10.52;;;2.70;;
495;SDS011;39559;48.630;9.162;2024-02-23T14:00:54;6.80;;;2.40;;
495;SDS011;39559;48.630;9.162;2024-02-23T14:03:20;8.20;;;2.77;;
495;SDS011;39559;48.630;9.162;2024-02-23T14:05:48;10.75;;;3.00;;
495;SDS011;39559;48.630;9.162;2024-02-23T14:08:13;8.50;;;2.87;;
495;SDS011;39559;48.630;9.162;2024-02-23T14:10:40;8.20;;;2.50;;
495;SDS011;39559;48.630;9.162;2024-02-23T14:15:07;9.45;;;2.83;;
495;SDS011;39559;48.630;9.162;2024-02-23T14:17:36;7.97;;;2.67;;
495;SDS011;39559;48.630;9.162;2024-02-23T14:20:03;7.70;;;2.28;;
495;SDS011;39559;48.630;9.162;2024-02-23T14:22:30;12.27;;;2.67;;
495;SDS011;39559;48.630;9.162;2024-02-23T14:24:57;9.85;;;2.40;;
495;SDS011;39559;48.630;9.162;2024-02-23T14:27:24;9.98;;;2.65;;
495;SDS011;39559;48.630;9.162;2024-02-23T14:29:52;8.27;;;2.25;;
495;SDS011;39559;48.630;9.162;2024-02-23T14:32:19;6.85;;;2.10;;
495;SDS011;39559;48.630;9.162;2024-02-23T14:34:44;8.80;;;2.80;;
495;SDS011;39559;48.630;9.162;2024-02-23T14:39:07;7.55;;;2.65;;
495;SDS011;39559;48.630;9.162;2024-02-23T14:41:34;8.20;;;2.27;;
495;SDS011;39559;48.630;9.162;2024-02-23T14:43:59;8.00;;;2.50;;
495;SDS011;39559;48.630;9.162;2024-02-23T14:46:34;7.57;;;2.55;;
495;SDS011;39559;48.630;9.162;2024-02-23T14:48:59;8.55;;;3.42;;
495;SDS011;39559;48.630;9.162;2024-02-23T14:51:30;8.10;;;2.53;;
495;SDS011;39559;48.630;9.162;2024-02-23T14:53:56;10.02;;;2.72;;
495;SDS011;39559;48.630;9.162;2024-02-23T14:56:30;8.90;;;2.20;;
495;SDS011;39559;48.630;9.162;2024-02-23T14:58:57;7.35;;;2.45;;
495;SDS011;39559;48.630;9.162;2024-02-23T15:03:04;11.95;;;2.35;;
495;SDS011;39559;48.630;9.162;2024-02-23T15:05:30;9.63;;;2.85;;
495;SDS011;39559;48.630;9.162;2024-02-23T15:07:57;7.07;;;2.33;;
495;SDS011;39559;48.630;9.162;2024-02-23T15:10:24;7.28;;;2.10;;
495;SDS011;39559;48.630;9.162;2024-02-23T15:12:50;8.68;;;2.38;;
495;SDS011;39559;48.630;9.162;2024-02-23T15:15:19;8.15;;;2.80;;
495;SDS011;39559;48.630;9.162;2024-02-23T15:17:45;7.63;;;2.20;;
495;SDS011;39559;48.630;9.162;2024-02-23T15:20:12;10.60;;;2.95;;
495;SDS011;39559;48.630;9.162;2024-02-23T15:22:38;8.80;;;3.07;;
495;SDS011;39559;48.630;9.162;2024-02-23T15:27:03;7.43;;;2.10;;
495;SDS011;39559;48.630;9.162;2024-02-23T15:29:29;13.63;;;2.60;;
495;SDS011;39559;48.630;9.162;2024-02-23T15:31:54;9.60;;;2.50;;
495;SDS011;39559;48.630;9.162;2024-02-23T15:34:20;8.70;;;2.40;;
495;SDS011;39559;48.630;9.162;2024-02-23T15:36:46;7.80;;;3.05;;
495;SDS011;39559;48.630;9.162;2024-02-23T15:39:12;7.03;;;2.43;;
495;SDS011;39559;48.630;9.162;2024-02-23T15:41:41;7.25;;;2.53;;
495;SDS011;39559;48.630;9.162;2024-02-23T15:44:06;9.70;;;3.13;;
495;SDS011;39559;48.630;9.162;2024-02-23T15:46:32;12.60;;;3.20;;
495;SDS011;39559;48.630;9.162;2024-02-23T15:51:02;7.90;;;2.70;;
495;SDS011;39559;48.630;9.162;2024-02-23T15:53:29;8.15;;;2.63;;
495;SDS011;39559;48.630;9.162;2024-02-23T15:55:56;9.32;;;3.05;;
495;SDS011;39559;48.630;9.162;2024-02-23T15:58:27;7.75;;;2.50;;
495;SDS011;39559;48.630;9.162;2024-02-23T16:00:54;8.13;;;2.90;;
495;SDS011;39559;48.630;9.162;2024-02-23T16:03:21;6.90;;;2.40;;
495;SDS011;39559;48.630;9.162;2024-02-23T16:05:52;9.55;;;2.60;;
495;SDS011;39559;48.630;9.162;2024-02-23T16:08:18;10.25;;;2.50;;
495;SDS011;39559;48.630;9.162;2024-02-23T16:11:09;6.80;;;2.40;;
495;SDS011;39559;48.630;9.162;2024-02-23T16:14:58;9.13;;;2.60;;
495;SDS011;39559;48.630;9.162;2024-02-23T16:17:24;8.50;;;2.57;;
495;SDS011;39559;48.630;9.162;2024-02-23T16:19:50;12.20;;;4.30;;
495;SDS011;39559;48.630;9.162;2024-02-23T16:22:16;13.60;;;3.83;;
495;SDS011;39559;48.630;9.162;2024-02-23T16:24:42;10.70;;;3.10;;
495;SDS011;39559;48.630;9.162;2024-02-23T16:27:08;12.13;;;3.60;;
495;SDS011;39559;48.630;9.162;2024-02-23T16:29:34;8.02;;;2.72;;
495;SDS011;39559;48.630;9.162;2024-02-23T16:32:01;7.15;;;2.67;;